createdAt,value
2019-06-27T00:02:24.147Z,78.27
2019-06-27T00:04:53.193Z,78.15
2019-06-27T00:07:22.226Z,77.74
2019-06-27T00:09:51.885Z,77.97
2019-06-27T00:12:21.132Z,78.15
2019-06-27T00:14:49.942Z,78.59
2019-06-27T00:17:18.725Z,78.77
2019-06-27T00:19:47.379Z,78.37
2019-06-27T00:22:16.700Z,78.88
2019-06-27T00:24:45.836Z,79.27
2019-06-27T00:27:14.681Z,78.86
2019-06-27T00:29:43.357Z,79.27
2019-06-27T00:32:12.299Z,79.59
2019-06-27T00:34:41.398Z,80.01
2019-06-27T00:37:10.491Z,79.91
2019-06-27T00:39:39.367Z,79.76
2019-06-27T00:42:08.232Z,79.53
2019-06-27T00:44:37.000Z,79.07
2019-06-27T00:47:06.399Z,78.23
2019-06-27T00:49:35.294Z,77.99
2019-06-27T00:52:04.024Z,77.63
2019-06-27T00:57:15.119Z,78.26
2019-06-27T00:59:44.188Z,78.49
2019-06-27T01:02:12.857Z,78.71
2019-06-27T01:04:41.853Z,78.46
2019-06-27T01:07:10.953Z,78.48
2019-06-27T01:09:39.632Z,77.95
2019-06-27T01:12:08.626Z,78.00
2019-06-27T01:14:37.425Z,77.62
2019-06-27T01:17:06.189Z,77.88
2019-06-27T01:19:35.345Z,77.41
2019-06-27T01:22:04.209Z,77.66
2019-06-27T01:24:33.086Z,77.46
2019-06-27T01:27:02.186Z,76.56
2019-06-27T01:29:30.755Z,76.41
2019-06-27T01:31:59.651Z,76.61
2019-06-27T01:34:28.713Z,76.51
2019-06-27T01:36:57.750Z,77.25
2019-06-27T01:39:26.835Z,76.11
2019-06-27T01:41:55.937Z,76.56
2019-06-27T01:44:42.296Z,76.52
2019-06-27T01:47:11.065Z,76.83
2019-06-27T01:49:43.655Z,76.26
2019-06-27T01:52:12.585Z,76.49
2019-06-27T01:54:41.595Z,75.72
2019-06-27T01:57:10.486Z,75.95
2019-06-27T01:59:40.345Z,75.58
2019-06-27T02:02:09.297Z,75.89
2019-06-27T02:04:38.008Z,76.07
2019-06-27T02:07:07.081Z,76.45
2019-06-27T02:09:36.170Z,76.34
2019-06-27T02:12:04.947Z,76.65
2019-06-27T02:14:33.685Z,76.05
2019-06-27T02:17:02.672Z,76.47
2019-06-27T02:19:31.638Z,76.92
2019-06-27T02:22:00.247Z,76.18
2019-06-27T02:24:29.278Z,76.16
2019-06-27T02:26:58.511Z,76.14
2019-06-27T02:29:27.488Z,76.29
2019-06-27T02:31:56.914Z,75.69
2019-06-27T02:34:25.910Z,75.71
2019-06-27T02:36:54.572Z,75.76
2019-06-27T02:39:24.035Z,76.03
2019-06-27T02:41:53.086Z,76.53
2019-06-27T02:44:21.699Z,76.99
2019-06-27T02:46:50.360Z,76.75
2019-06-27T02:49:19.251Z,76.98
2019-06-27T02:51:48.247Z,77.17
2019-06-27T02:54:17.650Z,77.53
2019-06-27T02:56:46.642Z,77.44
2019-06-27T02:59:15.939Z,76.68
2019-06-27T03:01:44.977Z,75.83
2019-06-27T03:04:14.236Z,75.74
2019-06-27T03:06:42.849Z,75.46
2019-06-27T03:09:11.683Z,75.84
2019-06-27T03:11:40.910Z,75.83
2019-06-27T03:14:09.798Z,75.84
2019-06-27T03:16:38.492Z,75.99
2019-06-27T03:19:07.372Z,76.53
2019-06-27T03:21:36.583Z,76.36
2019-06-27T03:24:05.678Z,76.11
2019-06-27T03:26:34.678Z,75.93
2019-06-27T03:29:03.724Z,75.99
2019-06-27T03:31:32.447Z,75.93
2019-06-27T03:34:01.174Z,76.90
2019-06-27T03:36:30.233Z,75.77
2019-06-27T03:38:59.229Z,75.93
2019-06-27T03:41:28.221Z,76.00
2019-06-27T03:43:56.891Z,76.11
2019-06-27T03:46:25.606Z,75.87
2019-06-27T03:48:54.236Z,76.03
2019-06-27T03:51:22.858Z,75.91
2019-06-27T03:53:51.932Z,74.94
2019-06-27T03:56:20.846Z,74.40
2019-06-27T03:59:10.188Z,74.77
2019-06-27T04:01:20.480Z,75.26
2019-06-27T04:03:49.380Z,76.56
2019-06-27T04:06:18.273Z,77.13
2019-06-27T04:08:47.377Z,77.08
2019-06-27T04:11:16.430Z,77.35
2019-06-27T04:13:45.118Z,76.93
2019-06-27T04:16:14.190Z,77.04
2019-06-27T04:18:43.649Z,76.94
2019-06-27T04:21:12.744Z,77.03
2019-06-27T04:23:41.844Z,76.65
2019-06-27T04:26:10.757Z,76.81
2019-06-27T04:28:39.828Z,76.31
2019-06-27T04:31:08.591Z,76.27
2019-06-27T04:33:37.509Z,75.79
2019-06-27T04:36:06.158Z,75.65
2019-06-27T04:38:35.135Z,75.65
2019-06-27T04:41:03.830Z,74.89
2019-06-27T04:43:32.785Z,75.45
2019-06-27T04:46:02.064Z,76.55
2019-06-27T04:48:31.144Z,75.75
2019-06-27T04:51:00.560Z,75.62
2019-06-27T04:53:29.150Z,74.94
2019-06-27T04:55:58.761Z,75.04
2019-06-27T04:58:27.439Z,74.77
2019-06-27T05:00:56.146Z,74.46
2019-06-27T05:03:24.833Z,74.57
2019-06-27T05:05:53.810Z,74.12
2019-06-27T05:08:22.812Z,74.28
2019-06-27T05:10:51.779Z,74.08
2019-06-27T05:13:21.096Z,74.20
2019-06-27T05:15:50.394Z,74.75
2019-06-27T05:18:19.066Z,74.15
2019-06-27T05:20:47.840Z,74.28
2019-06-27T05:23:16.868Z,74.55
2019-06-27T05:25:45.750Z,74.11
2019-06-27T05:28:14.765Z,73.52
2019-06-27T05:30:44.205Z,73.55
2019-06-27T05:33:12.903Z,72.76
2019-06-27T05:35:41.835Z,72.94
2019-06-27T05:38:10.643Z,72.72
2019-06-27T05:40:39.377Z,73.38
2019-06-27T05:43:08.013Z,72.89
2019-06-27T05:45:36.989Z,71.51
2019-06-27T05:48:05.752Z,71.71
2019-06-27T05:50:34.505Z,72.18
2019-06-27T05:53:03.773Z,71.98
2019-06-27T05:55:32.660Z,72.08
2019-06-27T05:58:01.651Z,72.02
2019-06-27T06:00:30.635Z,72.37
2019-06-27T06:02:59.540Z,72.57
2019-06-27T06:05:28.273Z,72.27
2019-06-27T06:07:56.969Z,72.06
2019-06-27T06:10:25.997Z,71.95
2019-06-27T06:12:54.708Z,72.24
2019-06-27T06:15:23.409Z,72.07
2019-06-27T06:17:52.467Z,72.33
2019-06-27T06:20:21.303Z,72.71
2019-06-27T06:22:50.097Z,72.40
2019-06-27T06:25:18.758Z,71.77
2019-06-27T06:27:47.626Z,70.69
2019-06-27T06:30:16.761Z,70.13
2019-06-27T06:32:45.707Z,69.91
2019-06-27T06:35:14.710Z,70.29
2019-06-27T06:37:43.699Z,70.23
2019-06-27T06:40:12.442Z,69.30
2019-06-27T06:42:41.038Z,70.01
2019-06-27T06:45:09.777Z,70.48
2019-06-27T06:47:38.860Z,68.76
2019-06-27T06:50:07.906Z,69.82
2019-06-27T06:52:36.598Z,69.47
2019-06-27T06:55:05.475Z,69.01
2019-06-27T06:57:34.423Z,69.52
2019-06-27T07:00:03.251Z,68.58
2019-06-27T07:02:32.247Z,68.75
2019-06-27T07:05:01.743Z,69.50
2019-06-27T07:07:30.715Z,70.53
2019-06-27T07:09:59.869Z,69.84
2019-06-27T07:12:28.497Z,69.95
2019-06-27T07:14:57.375Z,69.04
2019-06-27T07:17:26.278Z,68.40
2019-06-27T07:19:57.549Z,68.40
2019-06-27T07:22:26.025Z,68.27
2019-06-27T07:24:55.004Z,66.71
2019-06-27T07:27:24.389Z,66.73
2019-06-27T07:29:53.183Z,66.69
2019-06-27T07:32:22.187Z,66.37
2019-06-27T07:34:50.972Z,65.72
2019-06-27T07:37:19.612Z,66.76
2019-06-27T07:39:48.651Z,67.64
2019-06-27T07:42:17.645Z,67.89
2019-06-27T07:44:46.746Z,68.35
2019-06-27T07:47:15.453Z,68.47
2019-06-27T07:49:44.425Z,68.22
2019-06-27T07:52:13.533Z,67.30
2019-06-27T07:54:42.413Z,67.25
2019-06-27T07:57:11.487Z,67.16
2019-06-27T07:59:40.844Z,67.01
2019-06-27T08:02:09.537Z,67.12
2019-06-27T08:04:38.539Z,66.90
2019-06-27T08:07:07.995Z,67.26
2019-06-27T08:09:36.738Z,66.66
2019-06-27T08:12:05.498Z,66.84
2019-06-27T08:14:34.293Z,67.32
2019-06-27T08:17:03.341Z,66.90
2019-06-27T08:19:32.347Z,64.99
2019-06-27T08:22:01.346Z,66.20
2019-06-27T08:24:33.437Z,66.11
2019-06-27T08:27:01.075Z,67.05
2019-06-27T08:29:29.708Z,66.98
2019-06-27T08:31:59.261Z,66.33
2019-06-27T08:34:27.897Z,65.23
2019-06-27T08:36:56.562Z,66.09
2019-06-27T08:39:25.596Z,64.73
2019-06-27T08:41:54.253Z,64.29
2019-06-27T08:44:23.265Z,63.87
2019-06-27T08:46:52.202Z,64.38
2019-06-27T08:49:20.881Z,63.56
2019-06-27T08:51:49.541Z,63.57
2019-06-27T08:54:18.200Z,64.09
2019-06-27T08:56:46.920Z,63.79
2019-06-27T08:59:15.599Z,62.29
2019-06-27T09:01:44.620Z,62.61
2019-06-27T09:04:13.615Z,62.55
2019-06-27T09:06:42.236Z,64.20
2019-06-27T09:09:10.895Z,64.51
2019-06-27T09:11:39.572Z,62.12
2019-06-27T09:14:08.666Z,63.16
2019-06-27T09:16:37.369Z,62.27
2019-06-27T09:19:06.450Z,62.74
2019-06-27T09:21:35.419Z,64.11
2019-06-27T09:24:04.114Z,63.12
2019-06-27T09:26:32.743Z,61.79
2019-06-27T09:29:01.400Z,62.51
2019-06-27T09:31:30.494Z,62.72
2019-06-27T09:33:59.245Z,63.39
2019-06-27T09:36:28.182Z,63.75
2019-06-27T09:38:56.880Z,63.56
2019-06-27T09:41:25.525Z,63.60
2019-06-27T09:43:54.750Z,62.89
2019-06-27T09:46:23.639Z,62.57
2019-06-27T09:48:52.538Z,64.14
2019-06-27T09:51:21.849Z,64.87
2019-06-27T09:53:51.131Z,66.03
2019-06-27T09:56:20.540Z,64.73
2019-06-27T09:58:49.149Z,63.75
2019-06-27T10:01:17.828Z,62.58
2019-06-27T10:03:46.951Z,63.95
2019-06-27T10:06:15.975Z,64.88
2019-06-27T10:08:44.602Z,62.90
2019-06-27T10:11:13.579Z,62.06
2019-06-27T10:13:42.473Z,60.88
2019-06-27T10:16:11.437Z,61.35
2019-06-27T10:18:40.324Z,61.39
2019-06-27T10:21:09.347Z,61.36
2019-06-27T10:23:38.148Z,58.98
2019-06-27T10:26:06.836Z,60.34
2019-06-27T10:28:35.716Z,61.14
2019-06-27T10:31:04.709Z,62.41
2019-06-27T10:33:33.415Z,61.87
2019-06-27T10:36:02.047Z,62.31
2019-06-27T10:38:30.969Z,60.14
2019-06-27T10:40:59.968Z,60.50
2019-06-27T10:43:28.976Z,62.41
2019-06-27T10:45:58.560Z,64.52
2019-06-27T10:48:27.457Z,62.17
2019-06-27T10:50:56.052Z,60.88
2019-06-27T10:53:25.117Z,59.64
2019-06-27T10:55:54.542Z,59.95
2019-06-27T10:58:23.646Z,58.19
2019-06-27T11:00:52.545Z,56.75
2019-06-27T11:03:21.510Z,57.57
2019-06-27T11:05:50.151Z,58.56
2019-06-27T11:08:19.133Z,57.96
2019-06-27T11:10:47.903Z,59.22
2019-06-27T11:13:16.614Z,59.83
2019-06-27T11:15:45.293Z,58.87
2019-06-27T11:18:14.932Z,60.11
2019-06-27T11:20:43.862Z,60.21
2019-06-27T11:23:12.837Z,59.87
2019-06-27T11:25:41.516Z,60.23
2019-06-27T11:28:10.509Z,60.25
2019-06-27T11:30:39.319Z,60.24
2019-06-27T11:33:08.069Z,58.78
2019-06-27T11:35:37.127Z,59.25
2019-06-27T11:38:06.285Z,58.32
2019-06-27T11:40:35.816Z,60.53
2019-06-27T11:43:04.806Z,58.65
2019-06-27T11:45:33.699Z,58.52
2019-06-27T11:48:02.899Z,60.35
2019-06-27T11:50:32.098Z,60.52
2019-06-27T11:53:01.091Z,59.33
2019-06-27T11:55:30.291Z,59.55
2019-06-27T11:57:59.699Z,58.35
2019-06-27T12:00:28.440Z,57.15
2019-06-27T12:02:57.482Z,55.91
2019-06-27T12:05:26.980Z,54.96
2019-06-27T12:07:55.666Z,55.57
2019-06-27T12:10:24.687Z,56.20
2019-06-27T12:12:53.551Z,58.25
2019-06-27T12:15:22.277Z,54.93
2019-06-27T12:17:51.035Z,57.06
2019-06-27T12:20:20.125Z,58.99
2019-06-27T12:22:49.131Z,57.45
2019-06-27T12:25:18.113Z,57.61
2019-06-27T12:27:46.882Z,57.77
2019-06-27T12:30:15.648Z,57.45
2019-06-27T12:32:51.703Z,57.03
2019-06-27T12:35:15.725Z,57.67
2019-06-27T12:37:44.562Z,58.20
2019-06-27T12:40:13.258Z,59.22
2019-06-27T12:42:42.200Z,58.01
2019-06-27T12:45:11.443Z,56.52
2019-06-27T12:47:40.215Z,57.08
2019-06-27T12:50:09.264Z,56.36
2019-06-27T12:52:38.101Z,55.85
2019-06-27T12:55:07.372Z,54.77
2019-06-27T12:57:37.182Z,53.74
2019-06-27T13:00:08.775Z,52.87
2019-06-27T13:02:37.467Z,51.96
2019-06-27T13:05:06.840Z,52.59
2019-06-27T13:07:35.582Z,52.88
2019-06-27T13:10:04.508Z,52.21
2019-06-27T13:12:33.152Z,51.78
2019-06-27T13:15:01.823Z,51.59
2019-06-27T13:17:31.329Z,51.43
2019-06-27T13:20:00.586Z,52.21
2019-06-27T13:22:29.311Z,52.30
2019-06-27T13:24:58.878Z,51.99
2019-06-27T13:27:28.187Z,52.16
2019-06-27T13:29:56.856Z,53.27
2019-06-27T13:32:26.266Z,52.02
2019-06-27T13:34:55.173Z,51.24
2019-06-27T13:37:23.797Z,49.64
2019-06-27T13:39:52.472Z,50.00
2019-06-27T13:42:21.427Z,50.86
2019-06-27T13:44:50.490Z,51.02
2019-06-27T13:47:20.408Z,51.64
2019-06-27T13:49:49.651Z,50.67
2019-06-27T13:52:19.444Z,53.01
2019-06-27T13:54:48.127Z,55.22
2019-06-27T13:57:16.803Z,53.20
2019-06-27T13:59:45.465Z,53.65
2019-06-27T14:02:14.715Z,54.63
2019-06-27T14:04:56.665Z,55.64
2019-06-27T14:07:14.047Z,57.04
2019-06-27T14:09:53.734Z,56.38
2019-06-27T14:12:13.174Z,56.99
2019-06-27T14:14:55.446Z,57.86
2019-06-27T14:17:12.492Z,56.38
2019-06-27T14:19:41.225Z,56.21
2019-06-27T14:22:14.799Z,57.91
2019-06-27T14:24:40.524Z,57.04
2019-06-27T14:27:09.192Z,56.78
2019-06-27T14:29:38.543Z,56.93
2019-06-27T14:32:07.544Z,55.75
2019-06-27T14:34:36.169Z,55.68
2019-06-27T14:37:05.228Z,55.38
2019-06-27T14:39:34.317Z,54.55
2019-06-27T14:42:03.832Z,51.42
2019-06-27T14:44:32.798Z,50.07
2019-06-27T14:47:01.787Z,50.23
2019-06-27T14:49:30.703Z,51.96
2019-06-27T14:51:59.706Z,50.36
2019-06-27T14:54:28.366Z,51.23
2019-06-27T14:56:57.026Z,50.24
2019-06-27T14:59:25.961Z,49.44
2019-06-27T15:01:54.857Z,52.12
2019-06-27T15:04:23.739Z,54.07
2019-06-27T15:06:52.467Z,54.68
2019-06-27T15:09:21.206Z,55.48
2019-06-27T15:11:50.402Z,55.44
2019-06-27T15:14:19.412Z,54.66
2019-06-27T15:16:48.406Z,55.53
2019-06-27T15:19:17.453Z,55.32
2019-06-27T15:21:46.441Z,55.38
2019-06-27T15:24:15.390Z,53.59
2019-06-27T15:26:43.960Z,51.47
2019-06-27T15:29:12.597Z,52.08
2019-06-27T15:31:41.961Z,52.78
2019-06-27T15:34:11.492Z,51.54
2019-06-27T15:36:40.168Z,51.45
2019-06-27T15:39:11.837Z,52.25
2019-06-27T15:41:39.422Z,51.52
2019-06-27T15:44:08.103Z,50.61
2019-06-27T15:46:37.051Z,51.69
2019-06-27T15:49:05.938Z,50.63
2019-06-27T15:51:34.681Z,54.07
2019-06-27T15:54:03.295Z,56.36
2019-06-27T15:56:32.304Z,57.46
2019-06-27T15:59:03.591Z,59.64
2019-06-27T16:01:31.410Z,60.46
2019-06-27T16:04:00.161Z,61.70
2019-06-27T16:06:28.847Z,62.39
2019-06-27T16:08:57.788Z,61.07
2019-06-27T16:11:26.404Z,61.05
2019-06-27T16:13:55.093Z,61.35
2019-06-27T16:16:24.105Z,59.29
2019-06-27T16:18:53.159Z,57.84
2019-06-27T16:21:21.865Z,59.89
2019-06-27T16:23:51.137Z,58.52
2019-06-27T16:26:19.762Z,58.27
2019-06-27T16:28:48.390Z,58.94
2019-06-27T16:31:17.405Z,58.02
2019-06-27T16:33:46.705Z,59.45
2019-06-27T16:36:24.928Z,61.05
2019-06-27T16:38:46.287Z,61.22
2019-06-27T16:41:15.219Z,61.77
2019-06-27T16:43:43.885Z,59.84
2019-06-27T16:46:12.507Z,57.96
2019-06-27T16:48:41.469Z,57.83
2019-06-27T16:51:10.210Z,56.45
2019-06-27T16:53:38.876Z,56.00
2019-06-27T16:56:07.503Z,58.09
2019-06-27T16:58:36.441Z,59.80
2019-06-27T17:01:05.173Z,61.50
2019-06-27T17:03:34.425Z,60.90
2019-06-27T17:06:03.164Z,62.42
2019-06-27T17:08:32.079Z,62.05
2019-06-27T17:11:01.398Z,62.70
2019-06-27T17:13:30.673Z,62.86
2019-06-27T17:15:59.741Z,62.08
2019-06-27T17:18:29.427Z,61.29
2019-06-27T17:20:58.525Z,62.91
2019-06-27T17:23:27.130Z,63.15
2019-06-27T17:25:57.229Z,63.75
2019-06-27T17:28:25.914Z,62.70
2019-06-27T17:30:54.631Z,60.96
2019-06-27T17:33:23.591Z,60.69
2019-06-27T17:35:52.567Z,59.70
2019-06-27T17:38:21.288Z,59.83
2019-06-27T17:40:50.267Z,61.95
2019-06-27T17:43:18.902Z,63.82
2019-06-27T17:45:47.820Z,63.22
2019-06-27T17:48:16.566Z,61.85
2019-06-27T17:50:45.332Z,62.29
2019-06-27T17:53:14.345Z,62.47
2019-06-27T17:55:43.609Z,62.38
2019-06-27T17:58:12.358Z,61.71
2019-06-27T18:00:41.233Z,61.80
2019-06-27T18:03:10.176Z,61.57
2019-06-27T18:05:39.382Z,62.18
2019-06-27T18:08:08.479Z,62.67
2019-06-27T18:10:37.464Z,62.16
2019-06-27T18:13:06.664Z,62.95
2019-06-27T18:15:35.369Z,63.95
2019-06-27T18:18:03.985Z,64.14
2019-06-27T18:20:33.030Z,63.98
2019-06-27T18:23:01.728Z,64.57
2019-06-27T18:25:30.810Z,65.62
2019-06-27T18:27:59.803Z,65.97
2019-06-27T18:30:28.604Z,66.12
2019-06-27T18:32:57.306Z,65.87
2019-06-27T18:35:26.271Z,66.20
2019-06-27T18:37:54.930Z,65.80
2019-06-27T18:40:24.078Z,66.60
2019-06-27T18:42:52.715Z,67.55
2019-06-27T18:45:21.430Z,68.33
2019-06-27T18:47:50.318Z,68.78
2019-06-27T18:50:19.352Z,68.57
2019-06-27T18:52:48.305Z,69.31
2019-06-27T18:55:16.936Z,69.64
2019-06-27T18:57:45.581Z,69.73
2019-06-27T19:00:15.290Z,70.05
2019-06-27T19:02:44.593Z,70.51
2019-06-27T19:05:13.710Z,70.83
2019-06-27T19:07:46.110Z,71.62
2019-06-27T19:10:14.059Z,71.90
2019-06-27T19:12:42.708Z,72.40
2019-06-27T19:15:11.595Z,72.21
2019-06-27T19:17:40.295Z,72.93
2019-06-27T19:20:23.217Z,73.49
2019-06-27T19:23:07.872Z,73.72
2019-06-27T19:25:37.064Z,73.96
2019-06-27T19:28:06.067Z,73.93
2019-06-27T19:30:34.953Z,74.20
2019-06-27T19:33:03.738Z,74.45
2019-06-27T19:35:32.740Z,74.54
2019-06-27T19:38:02.941Z,74.82
2019-06-27T19:40:32.673Z,74.89
2019-06-27T19:43:01.973Z,74.97
2019-06-27T19:45:30.763Z,74.92
2019-06-27T19:47:59.401Z,75.23
2019-06-27T19:50:28.441Z,75.72
2019-06-27T19:52:57.057Z,75.54
2019-06-27T19:55:26.123Z,76.00
2019-06-27T19:57:54.814Z,75.91
2019-06-27T20:00:23.557Z,76.37
2019-06-27T20:02:52.604Z,76.72
2019-06-27T20:05:21.683Z,77.19
2019-06-27T20:07:50.446Z,77.68
2019-06-27T20:10:19.210Z,77.82
2019-06-27T20:12:47.849Z,77.30
2019-06-27T20:15:16.976Z,77.95
2019-06-27T20:17:45.760Z,77.85
2019-06-27T20:20:15.664Z,78.28
2019-06-27T20:22:46.631Z,78.30
2019-06-27T20:25:15.448Z,78.10
2019-06-27T20:27:44.209Z,78.07
2019-06-27T20:30:14.283Z,78.15
2019-06-27T20:32:43.232Z,77.35
2019-06-27T20:35:12.493Z,77.59
2019-06-27T20:37:41.581Z,77.90
2019-06-27T20:40:10.816Z,77.68
2019-06-27T20:42:39.760Z,77.80
2019-06-27T20:45:09.692Z,77.93
2019-06-27T20:47:38.467Z,78.34
2019-06-27T20:50:08.149Z,78.84
2019-06-27T20:52:37.182Z,78.69
2019-06-27T20:55:07.094Z,78.17
2019-06-27T20:57:35.728Z,77.62
2019-06-27T21:00:04.944Z,78.04
2019-06-27T21:02:34.010Z,77.84
2019-06-27T21:05:02.793Z,77.62
2019-06-27T21:07:31.761Z,77.11
2019-06-27T21:10:00.819Z,77.29
2019-06-27T21:12:29.573Z,77.44
2019-06-27T21:14:58.635Z,77.32
2019-06-27T21:17:27.508Z,77.43
2019-06-27T21:19:56.213Z,79.15
2019-06-27T21:22:25.512Z,79.49
2019-06-27T21:24:54.607Z,79.46
2019-06-27T21:27:23.600Z,78.60
2019-06-27T21:29:52.568Z,78.96
2019-06-27T21:32:31.312Z,78.75
2019-06-27T21:34:51.945Z,79.02
2019-06-27T21:37:20.943Z,79.50
2019-06-27T21:39:49.915Z,79.36
2019-06-27T21:42:18.994Z,79.41
2019-06-27T21:44:48.294Z,79.74
2019-06-27T21:47:17.598Z,79.51
2019-06-27T21:49:46.854Z,79.52
2019-06-27T21:52:15.527Z,79.43
2019-06-27T21:54:44.481Z,79.90
2019-06-27T21:57:13.468Z,79.19
2019-06-27T21:59:42.797Z,79.21
2019-06-27T22:02:11.614Z,79.25
2019-06-27T22:04:40.671Z,79.39
2019-06-27T22:07:09.273Z,79.45
2019-06-27T22:09:37.937Z,79.60
2019-06-27T22:12:07.023Z,79.69
2019-06-27T22:14:35.719Z,80.13
2019-06-27T22:17:05.122Z,80.30
2019-06-27T22:19:34.114Z,80.40
2019-06-27T22:22:02.775Z,80.58
2019-06-27T22:24:31.785Z,80.17
2019-06-27T22:27:00.904Z,79.89
2019-06-27T22:29:30.323Z,80.14
2019-06-27T22:31:59.196Z,80.50
2019-06-27T22:34:28.794Z,80.04
2019-06-27T22:37:03.753Z,80.32
2019-06-27T22:39:51.391Z,80.31
2019-06-27T22:42:38.229Z,81.03
2019-06-27T22:45:25.693Z,81.38
2019-06-27T22:48:12.196Z,81.66
2019-06-27T22:50:58.394Z,81.78
2019-06-27T22:53:28.621Z,81.46
2019-06-27T22:55:57.616Z,81.70
2019-06-27T22:58:26.245Z,81.84
2019-06-27T23:00:55.598Z,82.40
2019-06-27T23:03:24.500Z,82.35
2019-06-27T23:05:53.222Z,82.36
2019-06-27T23:08:22.269Z,82.51
2019-06-27T23:10:51.266Z,82.64
2019-06-27T23:13:20.322Z,83.14
2019-06-27T23:15:49.087Z,82.89
2019-06-27T23:18:18.141Z,83.28
2019-06-27T23:20:47.856Z,83.63
2019-06-27T23:23:16.829Z,83.61
2019-06-27T23:25:45.432Z,84.31
2019-06-27T23:28:14.098Z,84.17
2019-06-27T23:30:43.009Z,84.31
2019-06-27T23:33:11.897Z,84.66
2019-06-27T23:35:41.203Z,84.47
2019-06-27T23:38:10.189Z,82.83
2019-06-27T23:40:39.188Z,81.78
2019-06-27T23:43:08.509Z,80.83
2019-06-27T23:45:37.765Z,80.46
2019-06-27T23:48:06.988Z,79.88
2019-06-27T23:50:35.669Z,79.88
2019-06-27T23:53:04.700Z,79.88
2019-06-27T23:55:33.767Z,79.78
2019-06-27T23:58:02.775Z,79.93
